Monforte del Cid, Spain
Current Conditions -  °F | °C
As of 3:30 PM on Tuesday 27 Jan 2015 (Local Time) from LEAL Reporting Station
Clear Clear  
Wind Chill: 64°   Ceiling: Unl
Heat Index: 64°   Visibility: 6mi
Dew Point: 34°   Wind: 7mph
Humidity: 32%   Direction: 290°WNW
Pressure: 30.18"   Gusts: NA
Location:  38.38°N, 0.73°W
Report Text: LEAL 271430Z 29006KT 250V330 CAVOK 18/01 Q1022 NOSIG
Loading
Personal Weather Stations






























Interactive Weather Map New forecast layout! Learn more

10-Day Weather Forecast

Advertisements
Track Severe Weather on mobile